Time;durP1;ratioP1;P1;durP2;ratioP2;P2;SDS_P1;SDS_P2;PMS_P1;PMS_P2;Temp;Humidity;BMP_temperature;BMP_pressure;BME280_temperature;BME280_humidity;BME280_pressure;Samples;Min_cycle;Max_cycle;Signal;HPM_P1;HPM_P2
2024/01/14 00:01:20;;;;;;;43.50;16.77;;;;;;;-4.83;100.00;97370.72;5087239;28;20035;-71
2024/01/14 00:03:45;;;;;;;52.53;20.13;;;;;;;-4.82;100.00;97355.91;5083872;28;20490;-72
2024/01/14 00:06:11;;;;;;;67.05;21.63;;;;;;;-4.78;100.00;97355.91;5095589;28;20098;-72
2024/01/14 00:08:37;;;;;;;58.08;22.60;;;;;;;-4.83;100.00;97365.50;5089883;28;20028;-71
2024/01/14 00:11:02;;;;;;;77.95;29.95;;;;;;;-4.86;100.00;97369.88;5086894;28;20056;-72
2024/01/14 00:13:28;;;;;;;83.63;30.17;;;;;;;-4.81;100.00;97374.19;5099027;28;20497;-72
2024/01/14 00:15:53;;;;;;;74.75;26.75;;;;;;;-4.90;100.00;97363.78;5068784;28;20525;-72
2024/01/14 00:18:19;;;;;;;60.75;23.08;;;;;;;-4.93;100.00;97362.06;5078098;28;20043;-71
2024/01/14 00:20:45;;;;;;;57.67;23.40;;;;;;;-4.99;100.00;97369.06;5078417;28;20553;-72
2024/01/14 00:23:10;;;;;;;67.63;24.80;;;;;;;-5.06;100.00;97367.34;5069694;28;20110;-72
2024/01/14 00:25:36;;;;;;;61.78;23.40;;;;;;;-5.04;100.00;97368.19;5092067;28;20023;-71
2024/01/14 00:28:02;;;;;;;60.83;22.70;;;;;;;-5.08;100.00;97364.75;5097197;28;20020;-71
2024/01/14 00:30:27;;;;;;;61.47;23.35;;;;;;;-5.05;100.00;97375.16;5086124;28;20060;-71
2024/01/14 00:32:53;;;;;;;55.63;22.48;;;;;;;-5.09;100.00;97367.34;5094901;28;20106;-72
2024/01/14 00:35:19;;;;;;;63.35;24.50;;;;;;;-5.11;100.00;97369.09;5084563;28;20047;-72
2024/01/14 00:37:44;;;;;;;56.05;21.42;;;;;;;-5.17;100.00;97364.78;5096584;28;20019;-71
2024/01/14 00:40:13;;;;;;;76.32;28.95;;;;;;;-5.21;100.00;97364.78;5085026;28;20031;-71
2024/01/14 00:42:39;;;;;;;69.20;27.23;;;;;;;-5.28;100.00;97358.72;5064383;28;20494;-71
2024/01/14 00:45:05;;;;;;;59.15;22.63;;;;;;;-5.28;100.00;97361.34;5085989;28;20023;-72
2024/01/14 00:47:30;;;;;;;69.32;25.73;;;;;;;-5.27;100.00;97350.06;5086289;28;20024;-71
2024/01/14 00:49:57;;;;;;;56.15;23.80;;;;;;;-5.27;100.00;97355.25;5094202;28;20050;-72
2024/01/14 00:52:23;;;;;;;62.90;24.70;;;;;;;-5.21;100.00;97357.84;5062432;28;20093;-72
2024/01/14 00:54:50;;;;;;;65.38;24.85;;;;;;;-5.27;100.00;97357.00;5086650;28;20036;-73
2024/01/14 00:57:15;;;;;;;59.00;23.77;;;;;;;-5.36;100.00;97342.25;5080057;28;20031;-71
2024/01/14 00:59:41;;;;;;;69.88;26.48;;;;;;;-5.35;100.00;97354.41;5085743;28;20089;-71
2024/01/14 01:02:06;;;;;;;58.45;22.70;;;;;;;-5.41;100.00;97353.56;5085532;28;20024;-70
2024/01/14 01:04:33;;;;;;;70.28;25.08;;;;;;;-5.47;100.00;97349.22;5065438;28;20020;-72
2024/01/14 01:06:59;;;;;;;67.85;26.83;;;;;;;-5.47;100.00;97344.00;5108904;28;20012;-72
2024/01/14 01:09:24;;;;;;;55.40;20.92;;;;;;;-5.42;100.00;97352.72;5091733;28;20111;-71
2024/01/14 01:11:50;;;;;;;50.63;20.95;;;;;;;-5.47;100.00;97346.63;5073027;28;20455;-72
2024/01/14 01:14:15;;;;;;;58.28;23.30;;;;;;;-5.47;100.00;97338.81;5072737;28;20031;-71
2024/01/14 01:16:41;;;;;;;72.40;24.88;;;;;;;-5.47;100.00;97335.38;5089469;28;20030;-73
2024/01/14 01:19:07;;;;;;;74.30;27.92;;;;;;;-5.45;100.00;97334.47;5069244;28;20042;-72
2024/01/14 01:21:32;;;;;;;58.15;24.92;;;;;;;-5.41;100.00;97341.38;5077768;28;20065;-73
2024/01/14 01:23:58;;;;;;;60.13;22.85;;;;;;;-5.59;100.00;97328.44;5100299;28;20404;-72
2024/01/14 01:26:24;;;;;;;75.05;25.63;;;;;;;-5.70;100.00;97323.25;5062667;28;20028;-72
2024/01/14 01:28:50;;;;;;;63.38;24.38;;;;;;;-5.70;100.00;97335.41;5092488;28;20111;-72
2024/01/14 01:31:16;;;;;;;65.05;23.15;;;;;;;-5.69;100.00;97327.56;5091966;28;20028;-71
2024/01/14 01:33:42;;;;;;;67.10;24.45;;;;;;;-5.83;100.00;97316.34;5076963;28;20028;-72
2024/01/14 01:36:07;;;;;;;69.85;25.42;;;;;;;-5.70;100.00;97325.88;5081653;28;20027;-72
2024/01/14 01:38:33;;;;;;;83.07;30.80;;;;;;;-5.74;100.00;97321.53;5088646;28;20023;-72
2024/01/14 01:40:59;;;;;;;65.82;25.15;;;;;;;-5.80;100.00;97329.34;5089201;28;20031;-73
2024/01/14 01:43:24;;;;;;;53.17;19.88;;;;;;;-5.82;100.00;97325.91;5062680;28;20093;-72
2024/01/14 01:45:51;;;;;;;66.80;23.15;;;;;;;-5.90;100.00;97316.38;5068865;28;20381;-73
2024/01/14 01:48:19;;;;;;;61.83;25.08;;;;;;;-5.98;100.00;97318.13;5039733;28;20110;-71
2024/01/14 01:50:44;;;;;;;58.80;22.73;;;;;;;-5.86;100.00;97321.59;5081460;28;20106;-72
2024/01/14 01:53:10;;;;;;;46.67;19.52;;;;;;;-5.94;100.00;97310.34;5084794;28;20081;-71
2024/01/14 01:55:36;;;;;;;44.35;19.48;;;;;;;-6.03;100.00;97313.78;5086749;28;20109;-73
2024/01/14 01:58:02;;;;;;;49.03;19.17;;;;;;;-5.98;100.00;97315.53;5093425;28;20023;-73
2024/01/14 02:00:28;;;;;;;95.32;28.77;;;;;;;-5.90;100.00;97318.97;5080810;28;20403;-72
2024/01/14 02:02:54;;;;;;;56.38;22.08;;;;;;;-5.92;100.00;97312.91;5093924;28;20042;-73
2024/01/14 02:05:20;;;;;;;52.67;19.88;;;;;;;-5.96;100.00;97306.84;5080564;28;20028;-71
2024/01/14 02:07:46;;;;;;;55.88;21.15;;;;;;;-5.95;100.00;97289.50;5056348;28;20380;-72
2024/01/14 02:10:11;;;;;;;58.70;22.77;;;;;;;-6.05;100.00;97299.06;5092543;28;20026;-71
2024/01/14 02:12:37;;;;;;;60.05;23.65;;;;;;;-6.03;100.00;97295.56;5088616;28;20076;-71
2024/01/14 02:15:03;;;;;;;61.53;24.95;;;;;;;-5.86;100.00;97292.06;5062023;28;20395;-71
2024/01/14 02:17:28;;;;;;;55.65;22.17;;;;;;;-5.98;100.00;97279.97;5103606;28;20039;-72
2024/01/14 02:19:54;;;;;;;55.97;22.65;;;;;;;-5.97;100.00;97288.66;5088512;28;20024;-72
2024/01/14 02:22:26;;;;;;;41.80;17.73;;;;;;;-5.99;100.00;97295.56;5092921;28;20023;-71
2024/01/14 02:24:52;;;;;;;46.10;16.83;;;;;;;-5.98;100.00;97282.56;5093480;28;20026;-71
2024/01/14 02:27:17;;;;;;;47.85;18.23;;;;;;;-6.00;100.00;97283.44;5092804;28;20022;-73
2024/01/14 02:29:44;;;;;;;41.70;17.17;;;;;;;-6.07;100.00;97278.25;5110898;28;20027;-73
2024/01/14 02:32:10;;;;;;;40.47;16.02;;;;;;;-6.13;100.00;97293.88;5076086;28;20066;-72
2024/01/14 02:34:35;;;;;;;32.83;13.90;;;;;;;-6.23;100.00;97276.53;5092701;28;20059;-73
2024/01/14 02:37:02;;;;;;;35.47;14.27;;;;;;;-6.32;100.00;97275.66;5076417;28;20036;-72
2024/01/14 02:39:28;;;;;;;30.92;14.18;;;;;;;-6.27;100.00;97279.13;5092424;28;20124;-73
2024/01/14 02:41:53;;;;;;;37.10;15.40;;;;;;;-6.26;100.00;97273.94;5111084;28;20116;-72
2024/01/14 02:44:19;;;;;;;31.20;13.38;;;;;;;-6.17;100.00;97276.53;5092687;28;20043;-72
2024/01/14 02:46:44;;;;;;;39.10;15.07;;;;;;;-6.16;100.00;97265.25;5092545;28;20475;-72
2024/01/14 02:49:10;;;;;;;29.15;11.90;;;;;;;-6.24;100.00;97266.97;5075568;28;20031;-73
2024/01/14 02:51:36;;;;;;;32.50;12.80;;;;;;;-6.35;100.00;97267.88;5075586;28;20062;-73
2024/01/14 02:54:02;;;;;;;34.05;13.18;;;;;;;-6.36;100.00;97269.59;5092449;28;20457;-73
2024/01/14 02:56:28;;;;;;;32.72;14.40;;;;;;;-6.32;100.00;97273.06;5075536;28;20596;-74
2024/01/14 02:58:54;;;;;;;36.70;15.15;;;;;;;-6.26;100.00;97268.72;5095919;28;20028;-74
2024/01/14 03:01:19;;;;;;;38.20;15.10;;;;;;;-6.27;100.00;97268.72;5114640;28;20031;-73
2024/01/14 03:03:45;;;;;;;32.05;14.18;;;;;;;-6.15;100.00;97266.97;5096387;28;20547;-73
2024/01/14 03:06:11;;;;;;;34.75;13.85;;;;;;;-6.21;100.00;97248.75;5096511;28;20031;-72
2024/01/14 03:08:37;;;;;;;46.22;17.05;;;;;;;-6.19;100.00;97246.19;5079121;28;20092;-73
2024/01/14 03:11:03;;;;;;;45.08;18.20;;;;;;;-6.11;100.00;97260.03;5096329;28;20019;-73
2024/01/14 03:13:28;;;;;;;44.72;18.20;;;;;;;-6.14;100.00;97247.03;5096171;28;20036;-73
2024/01/14 03:15:54;;;;;;;52.00;19.83;;;;;;;-6.14;100.00;97245.28;5114511;28;20059;-73
2024/01/14 03:18:20;;;;;;;33.20;14.45;;;;;;;-6.12;100.00;97251.34;5078732;28;20522;-73
2024/01/14 03:20:45;;;;;;;37.88;14.90;;;;;;;-6.10;100.00;97241.81;5114265;28;20081;-73
2024/01/14 03:23:11;;;;;;;43.95;17.25;;;;;;;-6.17;100.00;97232.28;5114262;28;20027;-72
2024/01/14 03:25:36;;;;;;;63.13;22.90;;;;;;;-6.09;100.00;97230.53;5078777;28;20040;-72
2024/01/14 03:28:02;;;;;;;68.72;23.75;;;;;;;-6.04;100.00;97222.72;5096240;28;20016;-72
2024/01/14 03:30:28;;;;;;;77.90;27.50;;;;;;;-5.96;100.00;97218.34;5095751;28;20027;-71
2024/01/14 03:32:53;;;;;;;76.75;30.25;;;;;;;-5.97;100.00;97218.38;5095818;28;20089;-72
2024/01/14 03:35:19;;;;;;;57.08;20.70;;;;;;;-6.03;100.00;97215.78;5078981;28;20076;-72
2024/01/14 03:37:45;;;;;;;45.80;17.75;;;;;;;-6.05;100.00;97214.03;5079011;28;20043;-72
2024/01/14 03:40:11;;;;;;;48.50;17.42;;;;;;;-6.07;100.00;97218.41;5095804;28;20038;-72
2024/01/14 03:42:36;;;;;;;42.75;19.50;;;;;;;-6.30;100.00;97206.28;5095485;28;20031;-72
2024/01/14 03:45:03;;;;;;;41.35;17.85;;;;;;;-6.37;100.00;97220.19;5114075;28;20079;-72
2024/01/14 03:47:29;;;;;;;42.45;16.30;;;;;;;-6.41;100.00;97211.53;5078611;28;20118;-73
2024/01/14 03:49:54;;;;;;;44.65;16.30;;;;;;;-6.47;100.00;97203.72;5095773;28;20509;-73
2024/01/14 03:52:20;;;;;;;42.50;15.43;;;;;;;-6.49;100.00;97210.66;5113950;28;20028;-73
2024/01/14 03:54:45;;;;;;;41.35;17.42;;;;;;;-6.55;100.00;97200.25;5095044;28;20402;-73
2024/01/14 03:57:11;;;;;;;57.92;20.63;;;;;;;-6.50;100.00;97208.06;5095457;28;20027;-72
2024/01/14 03:59:38;;;;;;;45.40;20.25;;;;;;;-6.58;100.00;97200.25;5095263;28;20027;-74
2024/01/14 04:02:03;;;;;;;43.08;19.55;;;;;;;-6.53;100.00;97206.34;5095267;28;20024;-72
2024/01/14 04:04:29;;;;;;;59.17;19.73;;;;;;;-6.55;100.00;97202.00;5095448;28;20375;-72
2024/01/14 04:06:54;;;;;;;48.38;18.45;;;;;;;-6.50;100.00;97197.66;5095163;28;20470;-72
2024/01/14 04:09:20;;;;;;;56.40;20.98;;;;;;;-6.49;100.00;97210.66;5093811;28;20027;-72
2024/01/14 04:11:45;;;;;;;52.55;20.25;;;;;;;-6.55;100.00;97218.47;5113288;28;20027;-73
2024/01/14 04:14:11;;;;;;;55.10;21.52;;;;;;;-6.59;100.00;97206.34;5095194;28;20053;-74
2024/01/14 04:16:38;;;;;;;54.72;21.15;;;;;;;-6.48;100.00;97221.94;5094980;28;20028;-71
2024/01/14 04:19:04;;;;;;;61.30;22.63;;;;;;;-6.46;100.00;97223.69;5113464;28;20494;-72
2024/01/14 04:21:30;;;;;;;56.90;23.75;;;;;;;-6.53;100.00;97224.53;5095016;28;20458;-72
2024/01/14 04:23:55;;;;;;;64.18;24.20;;;;;;;-6.44;100.00;97229.75;5094552;28;20122;-72
2024/01/14 04:26:22;;;;;;;65.57;24.75;;;;;;;-6.38;100.00;97224.53;5095254;28;20057;-72
2024/01/14 04:28:49;;;;;;;74.65;30.67;;;;;;;-6.42;100.00;97235.78;5077817;28;20059;-73
2024/01/14 04:31:14;;;;;;;73.10;29.67;;;;;;;-6.46;100.00;97225.41;5094705;28;20019;-73
2024/01/14 04:33:40;;;;;;;79.18;29.95;;;;;;;-6.48;100.00;97222.78;5078041;28;20032;-72
2024/01/14 04:36:06;;;;;;;63.80;27.58;;;;;;;-6.36;100.00;97227.09;5112554;28;20027;-73
2024/01/14 04:38:31;;;;;;;71.53;29.13;;;;;;;-6.34;100.00;97228.00;5094590;28;20020;-72
2024/01/14 04:40:57;;;;;;;89.85;35.70;;;;;;;-6.46;100.00;97222.81;5094938;28;20042;-72
2024/01/14 04:43:22;;;;;;;94.28;35.45;;;;;;;-6.50;100.00;97221.94;5064175;28;20085;-72
2024/01/14 04:45:48;;;;;;;99.55;42.67;;;;;;;-6.52;100.00;97218.44;5074252;28;20032;-73
2024/01/14 04:48:13;;;;;;;95.68;36.42;;;;;;;-6.50;100.00;97232.34;5094273;28;20336;-72
2024/01/14 04:50:40;;;;;;;91.97;31.63;;;;;;;-6.44;100.00;97219.34;5094530;28;20076;-72
2024/01/14 04:53:06;;;;;;;100.35;34.78;;;;;;;-6.47;100.00;97229.75;5093901;28;20035;-72
2024/01/14 04:55:31;;;;;;;81.85;31.52;;;;;;;-6.53;100.00;97224.53;5077490;28;20034;-73
2024/01/14 04:57:57;;;;;;;71.53;28.10;;;;;;;-6.51;100.00;97224.53;5077161;28;20027;-72
2024/01/14 05:00:23;;;;;;;74.82;29.75;;;;;;;-6.58;100.00;97225.44;5077309;28;20530;-73
2024/01/14 05:02:49;;;;;;;81.93;29.38;;;;;;;-6.64;100.00;97215.88;5077070;28;20063;-72
2024/01/14 05:05:14;;;;;;;68.97;27.02;;;;;;;-6.66;100.00;97213.28;5112543;28;20019;-72
2024/01/14 05:07:40;;;;;;;67.47;26.17;;;;;;;-6.60;100.00;97210.69;5068923;28;20023;-73
2024/01/14 05:10:09;;;;;;;80.15;30.13;;;;;;;-6.60;100.00;97215.00;5093792;28;20035;-73
2024/01/14 05:12:35;;;;;;;75.85;29.20;;;;;;;-6.59;100.00;97211.56;5077028;28;20016;-72
2024/01/14 05:15:00;;;;;;;82.32;30.73;;;;;;;-6.58;100.00;97205.47;5093601;28;20029;-72
2024/01/14 05:17:26;;;;;;;79.18;28.17;;;;;;;-6.64;100.00;97200.25;5076699;28;20041;-72
2024/01/14 05:19:52;;;;;;;74.30;29.35;;;;;;;-6.58;100.00;97192.47;5093305;28;20471;-73
2024/01/14 05:22:18;;;;;;;74.50;29.45;;;;;;;-6.56;100.00;97202.88;5057563;28;20024;-72
2024/01/14 05:24:45;;;;;;;77.35;30.40;;;;;;;-6.57;100.00;97203.72;5094044;28;20030;-73
2024/01/14 05:27:14;;;;;;;77.00;32.28;;;;;;;-6.55;100.00;97205.47;5093536;28;20502;-74
2024/01/14 05:29:43;;;;;;;84.18;32.30;;;;;;;-6.69;100.00;97191.63;5111987;28;20453;-72
2024/01/14 05:32:12;;;;;;;71.45;28.83;;;;;;;-6.59;100.00;97214.16;5082872;28;20048;-73
2024/01/14 05:34:37;;;;;;;61.50;26.23;;;;;;;-6.54;100.00;97208.94;5093461;28;20402;-72
2024/01/14 05:37:03;;;;;;;70.15;26.77;;;;;;;-6.47;100.00;97208.06;5076124;28;20023;-72
2024/01/14 05:39:30;;;;;;;67.80;26.52;;;;;;;-6.47;100.00;97208.94;5075996;28;20024;-73
2024/01/14 05:41:56;;;;;;;70.50;26.92;;;;;;;-6.46;100.00;97205.47;5111984;28;20079;-75
2024/01/14 05:44:21;;;;;;;76.95;31.00;;;;;;;-6.41;100.00;97211.53;5093128;28;20460;-72
2024/01/14 05:46:47;;;;;;;93.50;35.63;;;;;;;-6.52;100.00;97200.25;5086470;28;20028;-72
2024/01/14 05:49:13;;;;;;;123.75;44.30;;;;;;;-6.50;100.00;97182.94;5092891;28;20042;-72
2024/01/14 05:51:39;;;;;;;120.97;46.92;;;;;;;-6.36;100.00;97183.75;5111561;28;20046;-72
2024/01/14 05:54:05;;;;;;;108.47;40.15;;;;;;;-6.44;100.00;97162.13;5103438;28;20073;-74
2024/01/14 05:56:30;;;;;;;123.85;45.80;;;;;;;-6.33;100.00;97168.16;5093020;28;20514;-73
2024/01/14 05:58:56;;;;;;;106.47;42.22;;;;;;;-6.22;100.00;97165.53;5093334;28;20019;-71
2024/01/14 06:01:22;;;;;;;112.45;41.65;;;;;;;-6.20;100.00;97161.16;5075712;28;20107;-72
2024/01/14 06:03:48;;;;;;;92.60;33.63;;;;;;;-6.19;100.00;97165.53;5093049;28;20411;-72
2024/01/14 06:06:13;;;;;;;122.70;44.97;;;;;;;-6.24;100.00;97149.91;5092814;28;20022;-72
2024/01/14 06:08:41;;;;;;;98.65;37.70;;;;;;;-6.14;100.00;97149.00;5093072;28;20020;-73
2024/01/14 06:11:06;;;;;;;73.65;29.98;;;;;;;-6.13;100.00;97157.69;5111058;28;20027;-73
2024/01/14 06:13:32;;;;;;;83.57;33.17;;;;;;;-6.11;100.00;97156.81;5090328;28;20019;-73
2024/01/14 06:15:58;;;;;;;91.47;38.33;;;;;;;-6.11;100.00;97151.59;5088596;28;20031;-71
2024/01/14 06:18:23;;;;;;;112.28;41.38;;;;;;;-5.99;100.00;97168.03;5091901;28;20040;-72
2024/01/14 06:20:49;;;;;;;117.75;46.33;;;;;;;-5.90;100.00;97149.78;5092726;28;20505;-72
2024/01/14 06:23:15;;;;;;;151.77;56.75;;;;;;;-5.80;100.00;97130.59;5075415;28;20023;-72
2024/01/14 06:25:40;;;;;;;172.75;62.72;;;;;;;-5.55;100.00;97158.25;5092763;28;20066;-73
2024/01/14 06:28:06;;;;;;;160.15;59.22;;;;;;;-5.40;100.00;97137.31;5110664;28;20050;-73
2024/01/14 06:30:33;;;;;;;142.57;49.25;;;;;;;-5.43;100.00;97123.44;5092620;28;20023;-72
2024/01/14 06:32:58;;;;;;;127.00;46.88;;;;;;;-5.27;100.00;97127.69;5110111;28;20414;-72
2024/01/14 06:35:24;;;;;;;124.57;51.03;;;;;;;-5.15;100.00;97110.22;5110976;28;20031;-73
2024/01/14 06:37:50;;;;;;;139.35;52.72;;;;;;;-4.95;100.00;97110.91;5106403;28;20020;-78
2024/01/14 06:40:16;;;;;;;137.95;50.60;;;;;;;-4.82;100.00;97102.97;5067644;28;20118;-76
2024/01/14 06:42:42;;;;;;;141.70;51.78;;;;;;;-4.61;100.00;97093.19;5074228;28;20031;-77
2024/01/14 06:45:12;;;;;;;126.88;47.85;;;;;;;-4.53;100.00;97094.00;5075813;28;20027;-77
2024/01/14 06:47:37;;;;;;;122.22;48.88;;;;;;;-4.13;100.00;97093.53;5068780;28;20032;-73
2024/01/14 06:50:04;;;;;;;115.13;48.63;;;;;;;-3.73;100.00;97089.53;5091262;28;20380;-77
2024/01/14 06:52:30;;;;;;;120.20;47.67;;;;;;;-3.14;100.00;97085.19;5077682;28;20431;-74
2024/01/14 06:54:56;;;;;;;118.82;46.08;;;;;;;-2.45;100.00;97093.53;5075576;28;20023;-71
2024/01/14 06:57:22;;;;;;;117.82;46.00;;;;;;;-1.63;100.00;97078.81;5110648;28;20024;-71
2024/01/14 06:59:48;;;;;;;94.18;38.63;;;;;;;-1.50;100.00;97067.13;5092507;28;20069;-78
2024/01/14 07:02:14;;;;;;;104.90;40.70;;;;;;;-1.51;100.00;97061.03;5080758;28;20514;-77
2024/01/14 07:04:40;;;;;;;104.90;39.00;;;;;;;-1.30;100.00;97068.41;5063897;28;20031;-77
2024/01/14 07:07:08;;;;;;;96.97;38.90;;;;;;;-1.16;100.00;97047.94;5063714;28;20085;-77
2024/01/14 07:09:34;;;;;;;153.63;52.83;;;;;;;-1.04;100.00;97033.66;5068092;28;20188;-78
2024/01/14 07:12:01;;;;;;;151.93;55.97;;;;;;;-0.46;100.00;97048.78;5071036;28;20047;-80
2024/01/14 07:14:28;;;;;;;153.05;59.10;;;;;;;-0.22;100.00;97044.63;5072095;28;20035;-79
2024/01/14 07:16:53;;;;;;;135.38;54.55;;;;;;;-0.15;100.00;97036.53;5062388;28;20480;-78
2024/01/14 07:19:19;;;;;;;149.80;62.47;;;;;;;-0.22;100.00;97029.75;5069308;28;20138;-78
2024/01/14 07:21:45;;;;;;;141.88;57.78;;;;;;;-0.17;100.00;97025.19;5074792;28;20490;-77
2024/01/14 07:24:11;;;;;;;134.10;59.63;;;;;;;-0.20;100.00;97038.44;5091697;28;20023;-79
2024/01/14 07:26:36;;;;;;;203.45;74.72;;;;;;;-0.29;100.00;97037.81;5074815;28;20126;-77
2024/01/14 07:29:02;;;;;;;157.45;62.00;;;;;;;-0.03;100.00;97049.31;5073040;28;20192;-79
2024/01/14 07:31:30;;;;;;;147.43;60.33;;;;;;;-0.02;100.00;97042.28;5073510;28;20408;-78
2024/01/14 07:33:56;;;;;;;133.85;53.70;;;;;;;0.82;100.00;97043.25;5112253;28;20027;-78
2024/01/14 07:36:22;;;;;;;125.70;52.05;;;;;;;1.77;100.00;97010.13;5075304;28;20031;-78
2024/01/14 07:38:47;;;;;;;87.18;37.88;;;;;;;2.69;100.00;97009.25;5072211;28;20027;-76
2024/01/14 07:41:13;;;;;;;96.22;42.00;;;;;;;3.34;93.76;96998.63;5072726;28;20043;-78
2024/01/14 07:43:40;;;;;;;97.50;43.50;;;;;;;3.67;87.15;96991.88;5073457;28;20078;-78
2024/01/14 07:46:06;;;;;;;95.38;41.58;;;;;;;4.69;78.87;96980.09;5089469;28;20024;-76
2024/01/14 07:48:33;;;;;;;155.23;59.50;;;;;;;5.09;72.88;96967.56;5074493;28;20080;-77
2024/01/14 07:51:38;;;;;;;150.90;62.97;;;;;;;4.43;75.74;96964.56;5075413;28;20065;-78
2024/01/14 07:54:04;;;;;;;106.88;45.92;;;;;;;3.04;84.73;96978.78;5052713;28;20103;-76
2024/01/14 07:56:29;;;;;;;83.88;37.15;;;;;;;2.79;93.31;96991.25;5073850;28;20036;-77
2024/01/14 07:58:55;;;;;;;67.00;31.10;;;;;;;3.01;95.10;96985.06;5074447;28;20020;-76
2024/01/14 08:01:21;;;;;;;62.00;26.33;;;;;;;3.22;93.71;96980.66;5091388;28;20020;-78
2024/01/14 08:03:46;;;;;;;54.38;26.40;;;;;;;4.28;88.56;96987.34;5075007;28;20419;-77
2024/01/14 08:06:12;;;;;;;58.83;28.58;;;;;;;5.21;84.72;97004.06;5074855;28;20435;-78
2024/01/14 08:08:38;;;;;;;83.30;31.95;;;;;;;6.19;72.47;96963.59;5075052;28;20024;-75
2024/01/14 08:11:03;;;;;;;84.88;41.50;;;;;;;7.33;64.59;96960.63;5073245;28;20051;-78
2024/01/14 08:13:29;;;;;;;89.55;42.88;;;;;;;8.07;59.14;96957.00;5074319;28;20028;-75
2024/01/14 08:15:54;;;;;;;76.30;38.30;;;;;;;8.60;55.87;96958.16;5075180;28;20030;-78
2024/01/14 08:18:20;;;;;;;99.90;48.47;;;;;;;8.43;55.44;96945.88;5074554;28;20150;-76
2024/01/14 08:20:50;;;;;;;97.97;49.92;;;;;;;9.18;54.42;96950.75;5074841;28;20080;-77
2024/01/14 08:23:15;;;;;;;103.55;51.75;;;;;;;10.06;51.28;96934.03;5074975;28;20027;-78
2024/01/14 08:25:41;;;;;;;98.63;49.67;;;;;;;10.29;50.29;96930.66;5074840;28;20038;-78
2024/01/14 08:28:06;;;;;;;115.38;62.30;;;;;;;10.73;49.44;96935.50;5074362;28;20016;-79
2024/01/14 08:30:32;;;;;;;136.07;66.25;;;;;;;11.19;47.31;96921.41;5091580;28;20051;-79
2024/01/14 08:32:59;;;;;;;124.70;65.40;;;;;;;11.82;46.67;96910.34;5071878;28;20567;-77
2024/01/14 08:35:25;;;;;;;101.57;55.65;;;;;;;12.00;45.15;96916.97;5070917;28;20031;-77
2024/01/14 08:37:50;;;;;;;137.93;66.60;;;;;;;12.55;44.83;96905.41;5073980;28;20034;-77
2024/01/14 08:40:24;;;;;;;113.68;62.28;;;;;;;12.80;43.97;96904.28;5076571;28;20031;-80
2024/01/14 08:42:50;;;;;;;113.80;61.53;;;;;;;12.87;43.87;96910.88;5093432;28;20042;-77
2024/01/14 08:45:16;;;;;;;125.53;65.68;;;;;;;13.27;43.64;96906.66;5074571;28;20027;-79
2024/01/14 08:47:42;;;;;;;107.20;57.53;;;;;;;13.97;43.04;96898.88;5074206;28;20501;-76
2024/01/14 08:50:11;;;;;;;98.35;51.85;;;;;;;13.96;41.92;96899.88;5091526;28;20030;-77
2024/01/14 08:52:37;;;;;;;85.30;46.13;;;;;;;14.85;40.87;96882.19;5076849;28;20023;-78
2024/01/14 08:55:08;;;;;;;55.35;27.80;;;;;;;14.56;39.98;96880.25;5090313;28;20024;-71
2024/01/14 08:57:34;;;;;;;62.55;33.35;;;;;;;14.69;40.69;96876.44;5073090;28;20053;-72
2024/01/14 08:59:59;;;;;;;59.10;33.85;;;;;;;15.49;39.69;96879.91;5084934;28;20541;-72
2024/01/14 09:02:28;;;;;;;68.35;39.50;;;;;;;16.21;38.52;96875.69;5090439;28;20121;-72
2024/01/14 09:04:54;;;;;;;85.13;44.38;;;;;;;16.54;37.90;96879.75;5090990;28;20070;-72
2024/01/14 09:07:19;;;;;;;57.45;29.25;;;;;;;17.48;36.87;96870.34;5090088;28;20062;-73
2024/01/14 09:09:45;;;;;;;49.10;27.08;;;;;;;17.31;36.24;96863.09;5090363;28;20023;-73
2024/01/14 09:12:10;;;;;;;44.55;22.98;;;;;;;17.68;34.64;96861.13;5090424;28;20437;-73
2024/01/14 09:14:38;;;;;;;45.63;21.13;;;;;;;17.41;35.81;96869.25;5090238;28;20423;-71
2024/01/14 09:17:04;;;;;;;52.78;28.08;;;;;;;18.14;35.09;96875.38;5086544;28;20040;-72
2024/01/14 09:19:31;;;;;;;;;;;;;;;18.55;35.08;96877.34;5090222;28;20047;-71
2024/01/14 09:21:56;;;;;;;29.60;14.73;;;;;;;18.48;34.03;96870.84;5107691;28;20371;-71
2024/01/14 09:24:22;;;;;;;32.58;16.40;;;;;;;19.16;32.82;96860.00;5087606;28;20407;-71
2024/01/14 09:26:48;;;;;;;32.90;17.40;;;;;;;18.93;33.21;96868.75;5072356;28;20509;-70
2024/01/14 09:29:13;;;;;;;36.45;15.50;;;;;;;19.45;33.13;96860.44;5086204;28;20046;-70
2024/01/14 09:31:39;;;;;;;24.20;10.77;;;;;;;18.74;30.38;96841.03;5089569;28;20062;-70
2024/01/14 09:34:05;;;;;;;32.75;11.90;;;;;;;18.76;30.18;96842.59;5089667;28;20114;-70
2024/01/14 09:36:33;;;;;;;16.65;7.85;;;;;;;18.25;29.35;96837.19;5071173;28;20113;-71
2024/01/14 09:38:59;;;;;;;9.48;6.13;;;;;;;17.39;27.47;96822.63;5082229;28;20020;-72
2024/01/14 09:41:42;;;;;;;13.65;3.70;;;;;;;16.77;28.02;96816.22;5069341;28;20091;-71
2024/01/14 09:44:09;;;;;;;9.25;5.63;;;;;;;17.44;27.87;96819.47;5098327;28;20108;-70
2024/01/14 09:46:35;;;;;;;8.45;5.05;;;;;;;17.80;27.49;96813.88;5089282;28;20504;-70
2024/01/14 09:49:01;;;;;;;9.93;3.92;;;;;;;17.21;27.48;96811.81;5088936;28;20031;-70
2024/01/14 09:51:30;;;;;;;21.27;4.88;;;;;;;17.99;28.30;96803.88;5089331;28;20135;-71
2024/01/14 09:53:58;;;;;;;10.60;3.72;;;;;;;18.20;26.71;96801.63;5089178;28;20083;-71
2024/01/14 09:56:24;;;;;;;5.15;3.17;;;;;;;17.82;26.63;96798.34;5089870;28;20043;-70
2024/01/14 09:58:52;;;;;;;8.38;4.28;;;;;;;18.13;26.89;96792.44;5088381;28;20046;-70
2024/01/14 10:01:21;;;;;;;8.50;4.45;;;;;;;17.59;27.53;96796.31;5089249;28;20038;-71
2024/01/14 10:03:47;;;;;;;12.52;4.45;;;;;;;16.87;27.81;96799.09;5107053;28;20036;-71
2024/01/14 10:06:13;;;;;;;7.35;3.42;;;;;;;16.11;28.25;96799.31;5076394;28;20023;-72
2024/01/14 10:08:41;;;;;;;6.05;4.28;;;;;;;15.27;29.10;96800.13;5086621;28;20522;-70
2024/01/14 10:11:07;;;;;;;17.63;9.27;;;;;;;14.96;29.25;96793.19;5068593;28;20490;-71
2024/01/14 10:13:34;;;;;;;7.18;3.40;;;;;;;14.82;30.32;96815.13;5083139;28;20023;-78
2024/01/14 10:16:02;;;;;;;7.32;3.80;;;;;;;15.31;30.18;96795.31;5085368;28;20119;-80
2024/01/14 10:18:27;;;;;;;16.63;6.40;;;;;;;16.07;30.36;96792.50;5075070;28;20051;-74
2024/01/14 10:20:53;;;;;;;9.43;5.00;;;;;;;16.86;29.36;96786.63;5107918;28;20110;-72
2024/01/14 10:23:25;;;;;;;14.48;4.10;;;;;;;17.28;27.81;96787.72;5089423;28;20505;-72
2024/01/14 10:25:54;;;;;;;7.43;3.60;;;;;;;16.65;27.88;96774.22;5104546;28;20437;-73
2024/01/14 10:28:20;;;;;;;11.00;5.03;;;;;;;17.64;27.46;96767.78;5089079;28;20043;-74
2024/01/14 10:30:45;;;;;;;13.68;7.57;;;;;;;17.52;27.31;96769.00;5089195;28;20023;-74
2024/01/14 10:33:11;;;;;;;8.95;4.85;;;;;;;17.07;27.09;96749.34;5089258;28;20390;-74
2024/01/14 10:35:38;;;;;;;21.02;9.55;;;;;;;16.30;27.59;96747.13;5089478;28;20032;-73
2024/01/14 10:38:04;;;;;;;19.95;11.32;;;;;;;16.22;28.08;96755.94;5088794;28;20019;-74
2024/01/14 10:40:30;;;;;;;16.08;5.10;;;;;;;16.41;27.84;96755.00;5107496;28;20042;-73
2024/01/14 10:42:56;;;;;;;11.27;5.40;;;;;;;16.88;30.19;96760.28;5088789;28;20424;-72
2024/01/14 10:45:22;;;;;;;9.60;5.07;;;;;;;17.96;28.23;96750.91;5088970;28;20039;-73
2024/01/14 10:47:48;;;;;;;11.98;5.78;;;;;;;19.13;26.96;96741.03;5088801;28;20426;-73
2024/01/14 10:50:17;;;;;;;17.15;7.32;;;;;;;19.29;25.25;96724.78;5071715;28;20387;-73
2024/01/14 10:52:48;;;;;;;9.93;4.55;;;;;;;20.61;25.42;96717.94;5088873;28;20041;-73
2024/01/14 10:55:18;;;;;;;16.42;7.53;;;;;;;21.65;24.53;96718.25;5089193;28;20039;-74
2024/01/14 10:57:44;;;;;;;10.33;5.77;;;;;;;21.39;24.29;96710.47;5105400;28;20383;-73
2024/01/14 11:00:12;;;;;;;8.15;4.68;;;;;;;20.33;23.96;96698.53;5070896;28;20055;-73
2024/01/14 11:02:39;;;;;;;9.63;4.80;;;;;;;20.00;24.88;96706.75;5071866;28;20044;-73
2024/01/14 11:05:06;;;;;;;8.05;3.58;;;;;;;18.90;24.77;96700.19;5088765;28;20027;-73
2024/01/14 11:07:33;;;;;;;10.88;6.00;;;;;;;17.76;26.41;96712.41;5071673;28;20198;-73